createdAt,value
2022-11-17T00:02:23.655Z,99020.38
2022-11-17T00:04:50.486Z,99024.72
2022-11-17T00:07:17.360Z,99024.75
2022-11-17T00:09:44.158Z,99025.66
2022-11-17T00:12:32.801Z,99006.41
2022-11-17T00:15:00.218Z,99017.81
2022-11-17T00:17:27.559Z,99007.50
2022-11-17T00:20:13.122Z,99033.59
2022-11-17T00:22:39.958Z,99034.44
2022-11-17T00:25:06.986Z,99030.88
2022-11-17T00:27:33.790Z,99016.19
2022-11-17T00:30:00.652Z,99034.44
2022-11-17T00:32:46.365Z,99017.09
2022-11-17T00:35:13.396Z,99029.22
2022-11-17T00:38:04.220Z,99024.81
2022-11-17T00:40:31.113Z,99020.44
2022-11-17T00:42:57.963Z,99024.87
2022-11-17T00:45:24.764Z,99016.06
2022-11-17T00:47:51.529Z,99002.06
2022-11-17T00:50:18.352Z,99004.53
2022-11-17T00:52:45.208Z,99011.53
2022-11-17T00:55:12.079Z,99021.19
2022-11-17T00:57:38.894Z,99014.28
2022-11-17T01:00:06.560Z,99009.91
2022-11-17T01:02:33.536Z,99010.75
2022-11-17T01:05:00.400Z,99008.13
2022-11-17T01:07:27.305Z,99003.72
2022-11-17T01:09:54.259Z,99008.22
2022-11-17T01:12:21.093Z,99003.78
2022-11-17T01:14:47.829Z,99003.84
2022-11-17T01:17:14.620Z,99003.00
2022-11-17T01:19:41.357Z,98992.44
2022-11-17T01:22:08.208Z,98983.84
2022-11-17T01:24:35.027Z,98989.94
2022-11-17T01:27:02.118Z,98985.53
2022-11-17T01:29:29.012Z,98974.13
2022-11-17T01:31:55.808Z,98980.25
2022-11-17T01:34:22.686Z,98961.22
2022-11-17T01:37:08.300Z,98972.34
2022-11-17T01:39:35.247Z,98949.81
2022-11-17T01:42:18.307Z,98968.84
2022-11-17T01:44:57.269Z,98975.91
2022-11-17T01:47:42.585Z,98968.06
2022-11-17T01:50:30.139Z,98973.34
2022-11-17T01:53:00.444Z,98960.16
2022-11-17T01:55:37.139Z,98951.69
2022-11-17T01:58:34.987Z,98968.09
2022-11-17T02:01:02.327Z,98961.16
2022-11-17T02:03:34.718Z,98956.75
2022-11-17T02:06:08.544Z,98967.31
2022-11-17T02:08:38.834Z,98975.22
2022-11-17T02:11:36.249Z,98984.91
2022-11-17T02:14:05.321Z,98999.88
2022-11-17T02:16:32.166Z,98998.16
2022-11-17T02:18:59.007Z,99002.50
2022-11-17T02:21:47.520Z,98993.75
2022-11-17T02:24:33.308Z,98994.47
2022-11-17T02:27:25.016Z,98968.41
2022-11-17T02:30:06.438Z,98987.44
2022-11-17T02:32:50.759Z,98997.94
2022-11-17T02:35:35.916Z,98996.25
2022-11-17T02:38:12.657Z,98995.47
2022-11-17T02:41:05.303Z,98995.44
2022-11-17T02:44:00.043Z,98990.97
2022-11-17T02:46:30.716Z,98972.69
2022-11-17T02:49:02.747Z,98977.78
2022-11-17T02:51:31.069Z,98968.41
2022-11-17T02:54:00.160Z,98957.81
2022-11-17T02:56:27.035Z,98970.84
2022-11-17T02:59:00.252Z,98955.03
2022-11-17T03:01:43.305Z,98951.59
2022-11-17T03:04:32.269Z,98952.41
2022-11-17T03:07:16.083Z,98955.09
2022-11-17T03:10:21.845Z,98963.00
2022-11-17T03:13:11.915Z,98947.25
2022-11-17T03:15:55.405Z,98945.41
2022-11-17T03:18:35.407Z,98934.25
2022-11-17T03:21:20.208Z,98944.94
2022-11-17T03:24:08.972Z,98957.97
2022-11-17T03:26:41.110Z,98923.88
2022-11-17T03:29:12.582Z,98925.53
2022-11-17T03:31:41.662Z,98916.00
2022-11-17T03:34:14.189Z,98917.63
2022-11-17T03:36:47.191Z,98904.66
2022-11-17T03:39:25.859Z,98909.88
2022-11-17T03:41:59.644Z,98936.16
2022-11-17T03:44:31.302Z,98914.31
2022-11-17T03:49:57.635Z,98943.59
2022-11-17T03:52:25.294Z,98942.91
2022-11-17T03:54:53.255Z,98938.69
2022-11-17T03:57:26.689Z,98929.50
2022-11-17T04:00:04.431Z,98947.06
2022-11-17T04:02:31.597Z,98956.03
2022-11-17T04:05:07.500Z,98959.88
2022-11-17T04:07:45.368Z,98962.56
2022-11-17T04:10:20.860Z,98966.28
2022-11-17T04:13:07.616Z,98982.84
2022-11-17T04:15:53.092Z,98982.78
2022-11-17T04:18:20.956Z,98983.62
2022-11-17T04:20:53.221Z,98982.00
2022-11-17T04:23:20.744Z,98974.25
2022-11-17T04:26:08.545Z,98962.16
2022-11-17T04:28:37.497Z,98956.94
2022-11-17T04:31:08.859Z,98963.09
2022-11-17T04:33:39.248Z,98973.78
2022-11-17T04:36:07.362Z,98974.81
2022-11-17T04:38:35.085Z,98979.31
2022-11-17T04:41:23.109Z,98970.59
2022-11-17T04:43:50.441Z,98968.88
2022-11-17T04:46:18.612Z,98975.94
2022-11-17T04:48:46.474Z,98979.44
2022-11-17T04:51:14.215Z,98985.53
2022-11-17T04:53:41.513Z,98981.06
2022-11-17T04:56:08.627Z,98987.19
2022-11-17T04:58:35.758Z,98994.19
2022-11-17T05:01:15.926Z,98989.78
2022-11-17T05:03:46.167Z,98989.84
2022-11-17T05:06:15.853Z,99001.25
2022-11-17T05:08:44.054Z,98997.84
2022-11-17T05:11:32.020Z,98998.91
2022-11-17T05:13:59.375Z,98993.72
2022-11-17T05:16:45.024Z,99005.13
2022-11-17T05:19:20.234Z,99010.44
2022-11-17T05:21:47.313Z,99004.31
2022-11-17T05:24:14.826Z,99002.59
2022-11-17T05:26:43.254Z,99020.84
2022-11-17T05:29:12.807Z,99018.03
2022-11-17T05:31:40.242Z,99008.53
2022-11-17T05:34:08.616Z,99006.44
2022-11-17T05:36:36.176Z,99006.38
2022-11-17T05:39:03.836Z,98998.53
2022-11-17T05:41:31.147Z,99005.28
2022-11-17T05:43:59.128Z,99012.22
2022-11-17T05:46:26.839Z,99006.97
2022-11-17T05:48:54.191Z,99011.34
2022-11-17T05:51:23.709Z,99006.97
2022-11-17T05:53:51.114Z,99013.94
2022-11-17T05:56:35.874Z,99011.31
2022-11-17T05:59:15.914Z,99019.28
2022-11-17T06:01:49.204Z,99020.19
2022-11-17T06:04:19.556Z,99011.50
2022-11-17T06:06:47.705Z,99021.09
2022-11-17T06:09:15.131Z,99021.19
2022-11-17T06:11:41.980Z,99024.87
2022-11-17T06:14:08.952Z,99030.12
2022-11-17T06:16:40.804Z,99031.94
2022-11-17T06:19:18.008Z,99035.41
2022-11-17T06:22:10.473Z,99035.47
2022-11-17T06:24:33.350Z,99039.00
2022-11-17T06:27:00.850Z,99037.25
2022-11-17T06:29:29.567Z,99046.13
2022-11-17T06:31:58.199Z,99044.31
2022-11-17T06:34:26.757Z,99048.72
2022-11-17T06:36:53.727Z,99039.03
2022-11-17T06:39:20.650Z,99043.31
2022-11-17T06:41:47.530Z,99038.28
2022-11-17T06:44:14.287Z,99046.88
2022-11-17T06:46:44.798Z,99048.56
2022-11-17T06:49:14.550Z,99051.94
2022-11-17T06:51:45.845Z,99053.28
2022-11-17T06:54:14.851Z,99059.28
2022-11-17T06:56:42.626Z,99055.87
2022-11-17T06:59:09.563Z,99045.69
2022-11-17T07:01:37.764Z,99046.69
2022-11-17T07:04:04.824Z,99048.41
2022-11-17T07:06:32.244Z,99050.41
2022-11-17T07:08:59.147Z,99053.22
2022-11-17T07:11:26.028Z,99030.69
2022-11-17T07:13:52.961Z,99055.50
2022-11-17T07:16:23.969Z,99058.50
2022-11-17T07:18:53.051Z,99058.69
2022-11-17T07:21:22.424Z,99058.59
2022-11-17T07:23:49.309Z,99059.16
2022-11-17T07:26:16.217Z,99059.66
2022-11-17T07:28:43.836Z,99057.53
2022-11-17T07:31:10.739Z,99051.28
2022-11-17T07:33:37.621Z,99051.00
2022-11-17T07:36:10.032Z,99040.16
2022-11-17T07:38:39.170Z,99038.97
2022-11-17T07:41:08.870Z,99038.31
2022-11-17T07:43:36.714Z,99041.50
2022-11-17T07:46:08.501Z,99015.16
2022-11-17T07:48:35.657Z,99029.94
2022-11-17T07:51:04.361Z,99035.03
2022-11-17T07:53:33.368Z,99031.41
2022-11-17T07:56:08.901Z,99027.00
2022-11-17T07:58:36.818Z,99035.13
2022-11-17T08:01:15.615Z,99035.03
2022-11-17T08:03:43.409Z,99028.16
2022-11-17T08:06:10.429Z,99039.75
2022-11-17T08:08:38.622Z,99045.66
2022-11-17T08:11:10.900Z,99052.44
2022-11-17T08:13:39.617Z,99050.28
2022-11-17T08:16:07.530Z,99054.34
2022-11-17T08:18:35.173Z,99057.75
2022-11-17T08:21:04.498Z,99041.47
2022-11-17T08:23:31.379Z,99053.47
2022-11-17T08:25:58.624Z,99025.22
2022-11-17T08:28:26.270Z,99055.53
2022-11-17T08:30:53.222Z,99050.56
2022-11-17T08:33:20.067Z,99049.19
2022-11-17T08:35:46.882Z,99065.41
2022-11-17T08:38:15.559Z,99058.50
2022-11-17T08:40:42.379Z,99063.50
2022-11-17T08:43:09.192Z,99070.25
2022-11-17T08:45:35.952Z,99065.16
2022-11-17T08:48:04.189Z,99080.31
2022-11-17T08:50:31.109Z,99073.56
2022-11-17T08:52:57.866Z,99082.19
2022-11-17T08:55:26.261Z,99086.97
2022-11-17T08:57:53.304Z,99090.16
2022-11-17T09:00:21.856Z,99090.31
2022-11-17T09:02:48.794Z,99094.87
2022-11-17T09:05:15.572Z,99102.84
2022-11-17T09:07:42.407Z,99097.22
2022-11-17T09:10:11.149Z,99096.91
2022-11-17T09:12:38.216Z,99098.56
2022-11-17T09:15:05.688Z,99093.59
2022-11-17T09:17:32.789Z,99095.63
2022-11-17T09:19:59.748Z,99099.69
2022-11-17T09:22:26.570Z,99104.72
2022-11-17T09:24:53.478Z,99097.69
2022-11-17T09:27:20.282Z,99115.38
2022-11-17T09:29:47.993Z,99115.88
2022-11-17T09:32:16.872Z,99104.91
2022-11-17T09:34:43.970Z,99105.62
2022-11-17T09:37:10.754Z,99106.34
2022-11-17T09:39:37.580Z,99099.63
2022-11-17T09:42:04.642Z,99100.59
2022-11-17T09:44:31.326Z,99104.13
2022-11-17T09:47:15.277Z,99111.47
2022-11-17T09:49:58.116Z,99111.84
2022-11-17T09:52:28.505Z,99112.66
2022-11-17T09:54:58.350Z,99099.56
2022-11-17T09:57:31.159Z,99099.31
2022-11-17T10:00:27.661Z,99090.34
2022-11-17T10:02:55.556Z,99090.97
2022-11-17T10:05:29.737Z,99084.00
2022-11-17T10:08:03.528Z,99087.22
2022-11-17T10:10:45.019Z,99085.72
2022-11-17T10:13:23.739Z,99092.28
2022-11-17T10:15:55.773Z,99087.25
2022-11-17T10:18:22.773Z,99063.91
2022-11-17T10:20:51.324Z,99075.12
2022-11-17T10:23:20.284Z,99073.03
2022-11-17T10:25:58.151Z,99074.28
2022-11-17T10:28:30.899Z,99077.25
2022-11-17T10:31:01.853Z,99078.87
2022-11-17T10:33:49.995Z,99072.09
2022-11-17T10:36:29.935Z,99071.19
2022-11-17T10:38:59.752Z,99082.75
2022-11-17T10:41:39.222Z,99084.19
2022-11-17T10:44:16.547Z,99087.03
2022-11-17T10:47:04.352Z,99090.75
2022-11-17T10:49:34.792Z,99098.19
2022-11-17T10:52:05.640Z,99089.22
2022-11-17T10:54:32.495Z,99100.09
2022-11-17T10:57:00.647Z,99088.78
2022-11-17T10:59:33.159Z,99094.09
2022-11-17T11:02:25.741Z,99091.78
2022-11-17T11:05:17.102Z,99084.63
2022-11-17T11:07:44.609Z,99083.50
2022-11-17T11:10:14.706Z,99087.69
2022-11-17T11:13:02.850Z,99090.09
2022-11-17T11:15:36.137Z,99091.69
2022-11-17T11:18:12.413Z,99093.37
2022-11-17T11:21:34.559Z,99095.50
2022-11-17T11:24:10.471Z,99096.84
2022-11-17T11:27:04.961Z,99110.91
2022-11-17T11:29:51.034Z,99114.47
2022-11-17T11:32:25.350Z,99116.75
2022-11-17T11:35:04.247Z,99109.66
2022-11-17T11:37:41.527Z,99104.72
2022-11-17T11:40:22.253Z,99101.09
2022-11-17T11:43:06.414Z,99112.09
2022-11-17T11:45:53.597Z,99115.13
2022-11-17T11:48:27.677Z,99114.63
2022-11-17T11:51:02.107Z,99118.41
2022-11-17T11:53:37.688Z,99122.31
2022-11-17T11:56:27.545Z,99120.09
2022-11-17T11:59:02.206Z,99111.00
2022-11-17T12:01:41.472Z,99106.84
2022-11-17T12:04:25.538Z,99109.91
2022-11-17T12:07:21.288Z,99106.06
2022-11-17T12:10:35.119Z,99112.09
2022-11-17T12:13:04.447Z,99119.28
2022-11-17T12:15:35.856Z,99117.75
2022-11-17T12:18:19.445Z,99116.25
2022-11-17T12:21:13.944Z,99119.63
2022-11-17T12:24:23.584Z,99107.59
2022-11-17T12:26:50.448Z,99107.38
2022-11-17T12:29:20.181Z,99101.75
2022-11-17T12:31:48.997Z,99110.38
2022-11-17T12:34:20.977Z,99114.63
2022-11-17T12:37:06.346Z,99113.41
2022-11-17T12:39:51.604Z,99107.09
2022-11-17T12:42:18.495Z,99113.31
2022-11-17T12:44:50.039Z,99105.72
2022-11-17T12:47:18.296Z,99105.78
2022-11-17T12:49:53.334Z,99101.75
2022-11-17T12:52:45.338Z,99102.47
2022-11-17T12:55:39.898Z,99102.78
2022-11-17T12:58:15.447Z,99100.19
2022-11-17T13:01:09.020Z,99105.53
2022-11-17T13:03:45.058Z,99117.19
2022-11-17T13:09:12.313Z,99114.00
2022-11-17T13:11:39.141Z,99103.09
2022-11-17T13:14:17.064Z,99121.84
2022-11-17T13:16:50.059Z,99126.47
2022-11-17T13:19:34.381Z,99123.34
2022-11-17T13:22:06.609Z,99137.00
2022-11-17T13:24:36.180Z,99126.13
2022-11-17T13:27:09.508Z,99117.19
2022-11-17T13:29:36.412Z,99124.81
2022-11-17T13:32:16.534Z,99129.53
2022-11-17T13:35:01.798Z,99136.50
2022-11-17T13:37:29.979Z,99142.09
2022-11-17T13:40:03.055Z,99147.84
2022-11-17T13:42:33.219Z,99144.03
2022-11-17T13:45:03.016Z,99140.00
2022-11-17T13:47:39.494Z,99144.84
2022-11-17T13:50:24.157Z,99147.84
2022-11-17T13:52:54.700Z,99142.19
2022-11-17T13:55:24.142Z,99154.53
2022-11-17T13:58:24.482Z,99153.00
2022-11-17T14:00:56.285Z,99144.16
2022-11-17T14:03:37.968Z,99133.97
2022-11-17T14:06:07.625Z,99149.78
2022-11-17T14:08:36.273Z,99144.09
2022-11-17T14:11:12.132Z,99149.56
2022-11-17T14:14:01.252Z,99155.69
2022-11-17T14:16:38.806Z,99155.09
2022-11-17T14:19:26.146Z,99156.66
2022-11-17T14:22:31.023Z,99150.94
2022-11-17T14:24:58.450Z,99158.94
2022-11-17T14:27:31.838Z,99126.75
2022-11-17T14:29:58.811Z,99159.69
2022-11-17T14:32:25.658Z,99156.44
2022-11-17T14:34:52.444Z,99139.59
2022-11-17T14:37:19.299Z,99156.25
2022-11-17T14:39:46.267Z,99122.81
2022-11-17T14:42:13.052Z,99151.78
2022-11-17T14:44:39.784Z,99155.59
2022-11-17T14:47:06.609Z,99157.63
2022-11-17T14:49:33.440Z,99144.47
2022-11-17T14:52:00.475Z,99140.97
2022-11-17T14:54:27.274Z,99142.00
2022-11-17T14:56:54.145Z,99137.75
2022-11-17T14:59:20.888Z,99144.09
2022-11-17T15:01:47.774Z,99136.34
2022-11-17T15:04:48.398Z,99140.16
2022-11-17T15:07:03.262Z,99151.81
2022-11-17T15:09:31.525Z,99152.84
2022-11-17T15:11:58.390Z,99138.16
2022-11-17T15:14:25.307Z,99137.28
2022-11-17T15:16:52.067Z,99141.19
2022-11-17T15:19:19.017Z,99142.09
2022-11-17T15:21:45.867Z,99139.56
2022-11-17T15:24:13.167Z,99147.66
2022-11-17T15:26:40.499Z,99134.72
2022-11-17T15:29:07.315Z,99130.53
2022-11-17T15:31:34.505Z,99144.44
2022-11-17T15:34:01.225Z,99158.28
2022-11-17T15:36:28.124Z,99167.53
2022-11-17T15:38:56.415Z,99167.47
2022-11-17T15:41:23.639Z,99168.53
2022-11-17T15:43:51.504Z,99158.88
2022-11-17T15:46:18.946Z,99145.56
2022-11-17T15:48:47.543Z,99153.09
2022-11-17T15:51:16.893Z,99155.66
2022-11-17T15:53:45.082Z,99145.81
2022-11-17T15:56:19.459Z,99146.56
2022-11-17T15:58:47.392Z,99148.19
2022-11-17T16:01:28.368Z,99146.41
2022-11-17T16:04:04.977Z,99138.66
2022-11-17T16:06:33.551Z,99130.19
2022-11-17T16:09:01.231Z,99140.19
2022-11-17T16:11:28.477Z,99130.66
2022-11-17T16:13:59.831Z,99119.59
2022-11-17T16:16:31.717Z,99121.28
2022-11-17T16:18:59.151Z,99124.94
2022-11-17T16:21:26.054Z,99129.78
2022-11-17T16:23:55.983Z,99133.84
2022-11-17T16:26:25.222Z,99136.91
2022-11-17T16:29:06.775Z,99112.88
2022-11-17T16:31:35.650Z,99138.72
2022-11-17T16:34:05.311Z,99124.56
2022-11-17T16:36:36.760Z,99122.59
2022-11-17T16:39:06.742Z,99144.69
2022-11-17T16:41:41.493Z,99148.19
2022-11-17T16:44:11.995Z,99142.16
2022-11-17T16:46:42.187Z,99155.13
2022-11-17T16:49:11.977Z,99170.81
2022-11-17T16:51:39.448Z,99172.75
2022-11-17T16:54:10.791Z,99175.16
2022-11-17T16:56:37.653Z,99163.22
2022-11-17T16:59:05.028Z,99160.53
2022-11-17T17:01:34.979Z,99151.59
2022-11-17T17:04:04.758Z,99162.31
2022-11-17T17:06:32.026Z,99178.19
2022-11-17T17:09:01.539Z,99172.75
2022-11-17T17:11:31.799Z,99170.81
2022-11-17T17:14:03.452Z,99168.22
2022-11-17T17:16:32.761Z,99195.13
2022-11-17T17:19:01.967Z,99204.69
2022-11-17T17:21:30.186Z,99203.81
2022-11-17T17:23:58.063Z,99207.34
2022-11-17T17:26:27.565Z,99204.69
2022-11-17T17:28:57.164Z,99198.47
2022-11-17T17:31:26.358Z,99205.44
2022-11-17T17:33:55.276Z,99199.19
2022-11-17T17:36:24.785Z,99192.09
2022-11-17T17:38:56.251Z,99186.81
2022-11-17T17:41:29.576Z,99198.66
2022-11-17T17:44:02.599Z,99198.88
2022-11-17T17:46:31.161Z,99201.63
2022-11-17T17:48:58.571Z,99192.81
2022-11-17T17:51:27.933Z,99205.69
2022-11-17T17:53:58.189Z,99196.00
2022-11-17T17:56:25.485Z,99195.75
2022-11-17T17:58:55.243Z,99195.88
2022-11-17T18:01:24.928Z,99187.19
2022-11-17T18:03:54.343Z,99183.75
2022-11-17T18:06:22.614Z,99185.47
2022-11-17T18:08:50.045Z,99185.50
2022-11-17T18:11:20.366Z,99176.63
2022-11-17T18:13:49.875Z,99176.19
2022-11-17T18:16:18.360Z,99175.53
2022-11-17T18:18:47.606Z,99171.91
2022-11-17T18:21:17.434Z,99162.72
2022-11-17T18:23:44.920Z,99172.00
2022-11-17T18:26:18.208Z,99171.19
2022-11-17T18:28:51.522Z,99168.09
2022-11-17T18:31:19.434Z,99167.38
2022-11-17T18:33:50.681Z,99159.62
2022-11-17T18:36:17.577Z,99173.16
2022-11-17T18:38:44.478Z,99173.75
2022-11-17T18:41:14.440Z,99167.41
2022-11-17T18:43:43.339Z,99161.94
2022-11-17T18:46:13.257Z,99159.12
2022-11-17T18:48:42.814Z,99161.78
2022-11-17T18:51:20.615Z,99130.38
2022-11-17T18:53:52.714Z,99151.44
2022-11-17T18:56:25.483Z,99143.22
2022-11-17T18:58:53.427Z,99146.66
2022-11-17T19:01:24.039Z,99141.50
2022-11-17T19:03:53.951Z,99133.81
2022-11-17T19:06:23.306Z,99141.91
2022-11-17T19:08:51.989Z,99143.72
2022-11-17T19:11:21.387Z,99162.72
2022-11-17T19:13:49.238Z,99169.87
2022-11-17T19:16:18.291Z,99170.66
2022-11-17T19:18:47.745Z,99159.84
2022-11-17T19:21:17.745Z,99152.72
2022-11-17T19:23:51.028Z,99150.06
2022-11-17T19:26:24.928Z,99146.34
2022-11-17T19:28:57.612Z,99142.06
2022-11-17T19:31:26.163Z,99140.44
2022-11-17T19:33:54.223Z,99139.47
2022-11-17T19:36:29.870Z,99122.66
2022-11-17T19:39:00.046Z,99122.09
2022-11-17T19:41:32.415Z,99137.69
2022-11-17T19:44:01.995Z,99129.69
2022-11-17T19:46:30.861Z,99144.69
2022-11-17T19:49:00.311Z,99131.53
2022-11-17T19:51:37.359Z,99131.50
2022-11-17T19:54:07.599Z,99144.69
2022-11-17T19:56:35.783Z,99142.91
2022-11-17T19:59:04.179Z,99154.37
2022-11-17T20:01:32.905Z,99157.06
2022-11-17T20:04:02.087Z,99160.56
2022-11-17T20:06:36.548Z,99168.88
2022-11-17T20:09:12.335Z,99174.94
2022-11-17T20:11:40.538Z,99164.44
2022-11-17T20:14:08.040Z,99165.28
2022-11-17T20:16:37.211Z,99164.50
2022-11-17T20:19:05.248Z,99152.84
2022-11-17T20:21:32.464Z,99137.84
2022-11-17T20:24:00.808Z,99133.56
2022-11-17T20:26:30.813Z,99125.50
2022-11-17T20:29:07.757Z,99147.87
2022-11-17T20:31:36.483Z,99141.59
2022-11-17T20:34:05.362Z,99150.38
2022-11-17T20:36:35.155Z,99142.50
2022-11-17T20:39:04.785Z,99151.16
2022-11-17T20:41:32.157Z,99152.31
2022-11-17T20:44:01.093Z,99171.84
2022-11-17T20:46:28.078Z,99177.25
2022-11-17T20:48:55.241Z,99165.06
2022-11-17T20:51:25.093Z,99158.78
2022-11-17T20:53:52.417Z,99159.41
2022-11-17T20:56:19.891Z,99161.19
2022-11-17T20:58:48.263Z,99161.91
2022-11-17T21:01:18.514Z,99149.84
2022-11-17T21:03:46.007Z,99164.38
2022-11-17T21:06:14.145Z,99155.72
2022-11-17T21:08:42.911Z,99157.28
2022-11-17T21:11:32.027Z,99155.72
2022-11-17T21:13:59.615Z,99157.28
2022-11-17T21:16:26.654Z,99137.00
2022-11-17T21:18:53.538Z,99144.00
2022-11-17T21:21:20.324Z,99144.78
2022-11-17T21:23:47.143Z,99131.81
2022-11-17T21:26:17.177Z,99120.62
2022-11-17T21:28:44.048Z,99147.66
2022-11-17T21:31:14.575Z,99136.38
2022-11-17T21:33:42.544Z,99141.28
2022-11-17T21:36:11.607Z,99144.12
2022-11-17T21:38:39.255Z,99131.78
2022-11-17T21:41:13.149Z,99141.53
2022-11-17T21:43:41.359Z,99145.25
2022-11-17T21:46:11.817Z,99154.97
2022-11-17T21:48:39.261Z,99161.31
2022-11-17T21:51:12.703Z,99165.72
2022-11-17T21:53:39.522Z,99156.03
2022-11-17T21:56:07.697Z,99152.31
2022-11-17T21:58:34.826Z,99147.03
2022-11-17T22:01:10.311Z,99136.66
2022-11-17T22:03:37.619Z,99153.16
2022-11-17T22:06:09.435Z,99136.69
2022-11-17T22:08:38.270Z,99134.00
2022-11-17T22:11:07.671Z,99138.31
2022-11-17T22:13:35.181Z,99131.34
2022-11-17T22:16:08.539Z,99137.72
2022-11-17T22:18:35.696Z,99140.34
2022-11-17T22:21:02.634Z,99124.06
2022-11-17T22:23:29.490Z,99138.06
2022-11-17T22:26:00.947Z,99133.78
2022-11-17T22:28:27.993Z,99125.16
2022-11-17T22:30:55.798Z,99114.03
2022-11-17T22:33:23.103Z,99115.91
2022-11-17T22:35:50.543Z,99108.41
2022-11-17T22:38:17.799Z,99114.41
2022-11-17T22:40:44.652Z,99104.00
2022-11-17T22:43:14.872Z,99105.00
2022-11-17T22:45:41.950Z,99112.41
2022-11-17T22:48:09.018Z,99110.78
2022-11-17T22:50:36.661Z,99115.47
2022-11-17T22:53:03.646Z,99113.94
2022-11-17T22:55:32.838Z,99109.69
2022-11-17T22:57:59.965Z,99099.63
2022-11-17T23:00:26.905Z,99103.19
2022-11-17T23:02:53.732Z,99112.81
2022-11-17T23:05:20.611Z,99105.94
2022-11-17T23:07:47.374Z,99094.69
2022-11-17T23:10:14.485Z,99114.78
2022-11-17T23:12:41.482Z,99119.38
2022-11-17T23:15:08.848Z,99101.06
2022-11-17T23:17:35.727Z,99095.91
2022-11-17T23:20:02.771Z,99094.22
2022-11-17T23:22:29.723Z,99091.75
2022-11-17T23:24:56.450Z,99099.00
2022-11-17T23:27:23.349Z,99100.97
2022-11-17T23:29:50.237Z,99100.22
2022-11-17T23:32:17.199Z,99101.19
2022-11-17T23:34:44.058Z,99096.88
2022-11-17T23:37:11.326Z,99086.50
2022-11-17T23:39:38.454Z,99104.88
2022-11-17T23:42:05.534Z,99101.72
2022-11-17T23:44:32.316Z,99108.72
2022-11-17T23:46:59.191Z,99109.69
2022-11-17T23:49:26.361Z,99103.63
2022-11-17T23:51:53.125Z,99108.03
2022-11-17T23:54:19.979Z,99118.59
2022-11-17T23:56:48.943Z,99117.72
2022-11-17T23:59:16.020Z,99114.16
